sensor_id;sensor_type;location;lat;lon;timestamp;P1;durP1;ratioP1;P2;durP2;ratioP2
53545;SDS011;39432;51.902;10.844;2023-02-24T00:02:11;18.40;;;4.38;;
53545;SDS011;39432;51.902;10.844;2023-02-24T00:04:45;22.88;;;3.90;;
53545;SDS011;39432;51.902;10.844;2023-02-24T00:07:17;17.02;;;2.80;;
53545;SDS011;39432;51.902;10.844;2023-02-24T00:09:47;16.60;;;2.83;;
53545;SDS011;39432;51.902;10.844;2023-02-24T00:12:17;22.20;;;2.83;;
53545;SDS011;39432;51.902;10.844;2023-02-24T00:14:49;13.25;;;2.38;;
53545;SDS011;39432;51.902;10.844;2023-02-24T00:17:19;20.95;;;3.28;;
53545;SDS011;39432;51.902;10.844;2023-02-24T00:19:53;18.63;;;2.25;;
53545;SDS011;39432;51.902;10.844;2023-02-24T00:22:22;10.73;;;2.13;;
53545;SDS011;39432;51.902;10.844;2023-02-24T00:24:52;12.00;;;1.77;;
53545;SDS011;39432;51.902;10.844;2023-02-24T00:27:22;18.13;;;2.35;;
53545;SDS011;39432;51.902;10.844;2023-02-24T00:29:54;14.68;;;2.42;;
53545;SDS011;39432;51.902;10.844;2023-02-24T00:32:24;17.95;;;2.20;;
53545;SDS011;39432;51.902;10.844;2023-02-24T00:34:54;20.02;;;2.92;;
53545;SDS011;39432;51.902;10.844;2023-02-24T00:37:24;10.93;;;2.15;;
53545;SDS011;39432;51.902;10.844;2023-02-24T00:39:55;18.48;;;2.78;;
53545;SDS011;39432;51.902;10.844;2023-02-24T00:42:24;11.27;;;2.45;;
53545;SDS011;39432;51.902;10.844;2023-02-24T00:44:56;22.70;;;2.13;;
53545;SDS011;39432;51.902;10.844;2023-02-24T00:47:35;16.63;;;1.85;;
53545;SDS011;39432;51.902;10.844;2023-02-24T00:50:06;11.10;;;2.08;;
53545;SDS011;39432;51.902;10.844;2023-02-24T00:52:36;10.75;;;2.45;;
53545;SDS011;39432;51.902;10.844;2023-02-24T00:55:06;11.65;;;2.35;;
53545;SDS011;39432;51.902;10.844;2023-02-24T00:57:40;12.25;;;1.85;;
53545;SDS011;39432;51.902;10.844;2023-02-24T01:00:14;15.63;;;2.10;;
53545;SDS011;39432;51.902;10.844;2023-02-24T01:02:45;18.17;;;2.65;;
53545;SDS011;39432;51.902;10.844;2023-02-24T01:05:14;20.15;;;2.83;;
53545;SDS011;39432;51.902;10.844;2023-02-24T01:07:45;14.60;;;2.05;;
53545;SDS011;39432;51.902;10.844;2023-02-24T01:10:15;16.17;;;2.40;;
53545;SDS011;39432;51.902;10.844;2023-02-24T01:12:46;15.30;;;2.38;;
53545;SDS011;39432;51.902;10.844;2023-02-24T01:15:19;14.40;;;2.67;;
53545;SDS011;39432;51.902;10.844;2023-02-24T01:17:50;21.75;;;2.45;;
53545;SDS011;39432;51.902;10.844;2023-02-24T01:20:19;11.32;;;1.73;;
53545;SDS011;39432;51.902;10.844;2023-02-24T01:22:50;15.10;;;2.40;;
53545;SDS011;39432;51.902;10.844;2023-02-24T01:25:23;16.02;;;2.30;;
53545;SDS011;39432;51.902;10.844;2023-02-24T01:27:53;13.65;;;1.90;;
53545;SDS011;39432;51.902;10.844;2023-02-24T01:30:25;12.23;;;2.47;;
53545;SDS011;39432;51.902;10.844;2023-02-24T01:32:57;13.85;;;2.08;;
53545;SDS011;39432;51.902;10.844;2023-02-24T01:35:27;17.05;;;2.83;;
53545;SDS011;39432;51.902;10.844;2023-02-24T01:38:00;15.45;;;2.40;;
53545;SDS011;39432;51.902;10.844;2023-02-24T01:40:30;16.50;;;2.10;;
53545;SDS011;39432;51.902;10.844;2023-02-24T01:42:59;24.30;;;2.97;;
53545;SDS011;39432;51.902;10.844;2023-02-24T01:45:36;10.07;;;2.10;;
53545;SDS011;39432;51.902;10.844;2023-02-24T01:48:08;15.23;;;2.17;;
53545;SDS011;39432;51.902;10.844;2023-02-24T01:50:38;17.90;;;2.97;;
53545;SDS011;39432;51.902;10.844;2023-02-24T01:53:08;15.27;;;3.08;;
53545;SDS011;39432;51.902;10.844;2023-02-24T01:55:39;18.95;;;2.30;;
53545;SDS011;39432;51.902;10.844;2023-02-24T01:58:14;14.48;;;1.92;;
53545;SDS011;39432;51.902;10.844;2023-02-24T02:00:53;11.80;;;2.30;;
53545;SDS011;39432;51.902;10.844;2023-02-24T02:03:25;15.98;;;3.17;;
53545;SDS011;39432;51.902;10.844;2023-02-24T02:05:58;23.13;;;2.95;;
53545;SDS011;39432;51.902;10.844;2023-02-24T02:08:29;12.95;;;2.55;;
53545;SDS011;39432;51.902;10.844;2023-02-24T02:11:03;21.20;;;2.40;;
53545;SDS011;39432;51.902;10.844;2023-02-24T02:13:35;20.50;;;3.15;;
53545;SDS011;39432;51.902;10.844;2023-02-24T02:16:14;14.27;;;2.05;;
53545;SDS011;39432;51.902;10.844;2023-02-24T02:18:57;15.95;;;2.28;;
53545;SDS011;39432;51.902;10.844;2023-02-24T02:21:58;16.48;;;2.78;;
53545;SDS011;39432;51.902;10.844;2023-02-24T02:24:35;15.73;;;3.55;;
53545;SDS011;39432;51.902;10.844;2023-02-24T02:27:21;17.52;;;2.75;;
53545;SDS011;39432;51.902;10.844;2023-02-24T02:30:16;22.98;;;3.15;;
53545;SDS011;39432;51.902;10.844;2023-02-24T02:35:57;10.57;;;2.20;;
53545;SDS011;39432;51.902;10.844;2023-02-24T02:38:39;11.43;;;2.20;;
53545;SDS011;39432;51.902;10.844;2023-02-24T02:41:17;12.65;;;2.40;;
53545;SDS011;39432;51.902;10.844;2023-02-24T02:43:56;21.65;;;3.03;;
53545;SDS011;39432;51.902;10.844;2023-02-24T02:46:39;26.13;;;2.97;;
53545;SDS011;39432;51.902;10.844;2023-02-24T02:49:13;15.32;;;2.05;;
53545;SDS011;39432;51.902;10.844;2023-02-24T02:51:51;15.75;;;2.85;;
53545;SDS011;39432;51.902;10.844;2023-02-24T02:54:24;19.02;;;3.13;;
53545;SDS011;39432;51.902;10.844;2023-02-24T02:56:58;18.92;;;3.45;;
53545;SDS011;39432;51.902;10.844;2023-02-24T03:02:07;21.75;;;2.97;;
53545;SDS011;39432;51.902;10.844;2023-02-24T03:04:44;13.23;;;2.15;;
53545;SDS011;39432;51.902;10.844;2023-02-24T03:07:20;13.20;;;1.85;;
53545;SDS011;39432;51.902;10.844;2023-02-24T03:09:57;19.45;;;3.35;;
53545;SDS011;39432;51.902;10.844;2023-02-24T03:12:31;17.17;;;3.17;;
53545;SDS011;39432;51.902;10.844;2023-02-24T03:15:05;13.65;;;2.30;;
53545;SDS011;39432;51.902;10.844;2023-02-24T03:17:39;18.17;;;2.70;;
53545;SDS011;39432;51.902;10.844;2023-02-24T03:20:14;14.68;;;2.38;;
53545;SDS011;39432;51.902;10.844;2023-02-24T03:22:53;19.40;;;3.15;;
53545;SDS011;39432;51.902;10.844;2023-02-24T03:25:32;25.20;;;3.53;;
53545;SDS011;39432;51.902;10.844;2023-02-24T03:28:11;11.60;;;2.10;;
53545;SDS011;39432;51.902;10.844;2023-02-24T03:30:49;17.73;;;3.17;;
53545;SDS011;39432;51.902;10.844;2023-02-24T03:33:30;14.65;;;2.75;;
53545;SDS011;39432;51.902;10.844;2023-02-24T03:36:06;15.80;;;2.70;;
53545;SDS011;39432;51.902;10.844;2023-02-24T03:38:43;13.38;;;2.35;;
53545;SDS011;39432;51.902;10.844;2023-02-24T03:41:17;15.52;;;1.80;;
53545;SDS011;39432;51.902;10.844;2023-02-24T03:43:47;11.95;;;2.10;;
53545;SDS011;39432;51.902;10.844;2023-02-24T03:46:20;12.55;;;2.53;;
53545;SDS011;39432;51.902;10.844;2023-02-24T03:48:51;18.67;;;2.35;;
53545;SDS011;39432;51.902;10.844;2023-02-24T03:51:27;20.58;;;2.75;;
53545;SDS011;39432;51.902;10.844;2023-02-24T03:54:05;14.13;;;1.92;;
53545;SDS011;39432;51.902;10.844;2023-02-24T03:56:47;17.08;;;1.90;;
53545;SDS011;39432;51.902;10.844;2023-02-24T03:59:31;19.17;;;1.90;;
53545;SDS011;39432;51.902;10.844;2023-02-24T04:02:11;10.65;;;1.60;;
53545;SDS011;39432;51.902;10.844;2023-02-24T04:04:50;12.10;;;2.08;;
53545;SDS011;39432;51.902;10.844;2023-02-24T04:07:36;12.82;;;1.80;;
53545;SDS011;39432;51.902;10.844;2023-02-24T04:10:22;13.82;;;1.80;;
53545;SDS011;39432;51.902;10.844;2023-02-24T04:13:00;14.48;;;1.80;;
53545;SDS011;39432;51.902;10.844;2023-02-24T04:15:37;11.57;;;2.03;;
53545;SDS011;39432;51.902;10.844;2023-02-24T04:18:12;17.73;;;2.17;;
53545;SDS011;39432;51.902;10.844;2023-02-24T04:20:46;11.30;;;1.55;;
53545;SDS011;39432;51.902;10.844;2023-02-24T04:23:21;12.52;;;1.75;;
53545;SDS011;39432;51.902;10.844;2023-02-24T04:25:57;11.35;;;2.00;;
53545;SDS011;39432;51.902;10.844;2023-02-24T04:28:27;14.40;;;2.22;;
53545;SDS011;39432;51.902;10.844;2023-02-24T04:31:00;16.63;;;1.92;;
53545;SDS011;39432;51.902;10.844;2023-02-24T04:33:34;19.60;;;2.45;;
53545;SDS011;39432;51.902;10.844;2023-02-24T04:36:04;14.30;;;1.90;;
53545;SDS011;39432;51.902;10.844;2023-02-24T04:38:38;11.73;;;1.83;;
53545;SDS011;39432;51.902;10.844;2023-02-24T04:41:11;11.32;;;2.13;;
53545;SDS011;39432;51.902;10.844;2023-02-24T04:43:47;12.93;;;2.20;;
53545;SDS011;39432;51.902;10.844;2023-02-24T04:46:17;11.98;;;2.08;;
53545;SDS011;39432;51.902;10.844;2023-02-24T04:48:48;9.85;;;1.52;;
53545;SDS011;39432;51.902;10.844;2023-02-24T04:51:18;14.65;;;1.63;;
53545;SDS011;39432;51.902;10.844;2023-02-24T04:53:48;16.55;;;2.05;;
53545;SDS011;39432;51.902;10.844;2023-02-24T04:56:23;9.27;;;1.60;;
53545;SDS011;39432;51.902;10.844;2023-02-24T04:58:54;10.93;;;1.42;;
53545;SDS011;39432;51.902;10.844;2023-02-24T05:01:24;9.80;;;1.98;;
53545;SDS011;39432;51.902;10.844;2023-02-24T05:03:54;9.80;;;1.65;;
53545;SDS011;39432;51.902;10.844;2023-02-24T05:06:25;14.98;;;2.72;;
53545;SDS011;39432;51.902;10.844;2023-02-24T05:08:55;14.43;;;2.35;;
53545;SDS011;39432;51.902;10.844;2023-02-24T05:11:29;9.77;;;1.83;;
53545;SDS011;39432;51.902;10.844;2023-02-24T05:14:00;14.35;;;2.20;;
53545;SDS011;39432;51.902;10.844;2023-02-24T05:16:30;13.27;;;2.10;;
53545;SDS011;39432;51.902;10.844;2023-02-24T05:19:00;7.93;;;1.60;;
53545;SDS011;39432;51.902;10.844;2023-02-24T05:21:42;14.15;;;2.20;;
53545;SDS011;39432;51.902;10.844;2023-02-24T05:24:11;15.63;;;1.90;;
53545;SDS011;39432;51.902;10.844;2023-02-24T05:26:45;7.13;;;2.08;;
53545;SDS011;39432;51.902;10.844;2023-02-24T05:29:15;15.38;;;2.65;;
53545;SDS011;39432;51.902;10.844;2023-02-24T05:31:44;9.68;;;1.60;;
53545;SDS011;39432;51.902;10.844;2023-02-24T05:34:14;14.02;;;2.28;;
53545;SDS011;39432;51.902;10.844;2023-02-24T05:36:44;9.82;;;2.05;;
53545;SDS011;39432;51.902;10.844;2023-02-24T05:39:15;13.85;;;1.60;;
53545;SDS011;39432;51.902;10.844;2023-02-24T05:41:49;14.73;;;2.40;;
53545;SDS011;39432;51.902;10.844;2023-02-24T05:44:20;12.88;;;2.50;;
53545;SDS011;39432;51.902;10.844;2023-02-24T05:46:52;21.10;;;2.67;;
53545;SDS011;39432;51.902;10.844;2023-02-24T05:49:25;14.77;;;2.58;;
53545;SDS011;39432;51.902;10.844;2023-02-24T05:51:59;16.02;;;1.60;;
53545;SDS011;39432;51.902;10.844;2023-02-24T05:54:34;9.07;;;1.80;;
53545;SDS011;39432;51.902;10.844;2023-02-24T05:57:09;11.27;;;2.08;;
53545;SDS011;39432;51.902;10.844;2023-02-24T05:59:40;16.35;;;2.45;;
53545;SDS011;39432;51.902;10.844;2023-02-24T06:02:11;13.52;;;2.88;;
53545;SDS011;39432;51.902;10.844;2023-02-24T06:04:44;14.27;;;2.45;;
53545;SDS011;39432;51.902;10.844;2023-02-24T06:07:17;13.80;;;2.53;;
53545;SDS011;39432;51.902;10.844;2023-02-24T06:09:51;17.88;;;3.00;;
53545;SDS011;39432;51.902;10.844;2023-02-24T06:12:26;12.45;;;2.60;;
53545;SDS011;39432;51.902;10.844;2023-02-24T06:14:57;10.15;;;2.22;;
53545;SDS011;39432;51.902;10.844;2023-02-24T06:17:27;11.80;;;2.30;;
53545;SDS011;39432;51.902;10.844;2023-02-24T06:19:57;24.45;;;3.88;;
53545;SDS011;39432;51.902;10.844;2023-02-24T06:22:27;14.07;;;2.50;;
53545;SDS011;39432;51.902;10.844;2023-02-24T06:24:58;14.45;;;2.90;;
53545;SDS011;39432;51.902;10.844;2023-02-24T06:27:33;14.70;;;3.20;;
53545;SDS011;39432;51.902;10.844;2023-02-24T06:30:05;12.70;;;2.83;;
53545;SDS011;39432;51.902;10.844;2023-02-24T06:32:37;8.60;;;2.38;;
53545;SDS011;39432;51.902;10.844;2023-02-24T06:35:08;10.70;;;2.30;;
53545;SDS011;39432;51.902;10.844;2023-02-24T06:37:38;12.10;;;2.40;;
53545;SDS011;39432;51.902;10.844;2023-02-24T06:40:08;12.13;;;2.33;;
53545;SDS011;39432;51.902;10.844;2023-02-24T06:42:48;10.57;;;2.10;;
53545;SDS011;39432;51.902;10.844;2023-02-24T06:45:19;9.18;;;2.40;;
53545;SDS011;39432;51.902;10.844;2023-02-24T06:47:51;14.73;;;2.53;;
53545;SDS011;39432;51.902;10.844;2023-02-24T06:50:21;9.18;;;2.25;;
53545;SDS011;39432;51.902;10.844;2023-02-24T06:52:53;11.30;;;2.25;;
53545;SDS011;39432;51.902;10.844;2023-02-24T06:55:23;9.35;;;2.30;;
53545;SDS011;39432;51.902;10.844;2023-02-24T06:57:57;6.15;;;1.75;;
53545;SDS011;39432;51.902;10.844;2023-02-24T07:00:30;14.00;;;2.60;;
53545;SDS011;39432;51.902;10.844;2023-02-24T07:03:05;10.43;;;3.03;;
53545;SDS011;39432;51.902;10.844;2023-02-24T07:05:43;12.40;;;1.92;;
53545;SDS011;39432;51.902;10.844;2023-02-24T07:08:16;12.75;;;2.13;;
53545;SDS011;39432;51.902;10.844;2023-02-24T07:10:51;16.50;;;2.53;;
53545;SDS011;39432;51.902;10.844;2023-02-24T07:13:25;16.15;;;3.25;;
53545;SDS011;39432;51.902;10.844;2023-02-24T07:15:55;10.77;;;2.15;;
53545;SDS011;39432;51.902;10.844;2023-02-24T07:18:32;11.75;;;2.53;;
53545;SDS011;39432;51.902;10.844;2023-02-24T07:21:02;14.95;;;2.00;;
53545;SDS011;39432;51.902;10.844;2023-02-24T07:23:37;10.23;;;1.95;;
53545;SDS011;39432;51.902;10.844;2023-02-24T07:26:08;11.52;;;2.33;;
53545;SDS011;39432;51.902;10.844;2023-02-24T07:28:43;8.98;;;2.05;;
53545;SDS011;39432;51.902;10.844;2023-02-24T07:31:15;13.07;;;1.98;;
53545;SDS011;39432;51.902;10.844;2023-02-24T07:33:48;13.30;;;1.95;;
53545;SDS011;39432;51.902;10.844;2023-02-24T07:36:23;6.57;;;1.80;;
53545;SDS011;39432;51.902;10.844;2023-02-24T07:38:56;9.70;;;1.70;;
53545;SDS011;39432;51.902;10.844;2023-02-24T07:41:27;8.32;;;1.85;;
53545;SDS011;39432;51.902;10.844;2023-02-24T07:43:59;13.25;;;1.77;;
53545;SDS011;39432;51.902;10.844;2023-02-24T07:46:35;7.72;;;1.73;;
53545;SDS011;39432;51.902;10.844;2023-02-24T07:49:04;11.50;;;1.80;;
53545;SDS011;39432;51.902;10.844;2023-02-24T07:51:35;7.45;;;1.92;;
53545;SDS011;39432;51.902;10.844;2023-02-24T07:54:05;11.63;;;1.58;;
53545;SDS011;39432;51.902;10.844;2023-02-24T07:56:36;7.03;;;1.35;;
53545;SDS011;39432;51.902;10.844;2023-02-24T08:13:01;5.90;;;1.35;;
53545;SDS011;39432;51.902;10.844;2023-02-24T08:15:32;7.40;;;1.30;;
53545;SDS011;39432;51.902;10.844;2023-02-24T08:18:02;5.47;;;1.00;;
53545;SDS011;39432;51.902;10.844;2023-02-24T08:20:32;7.15;;;1.20;;
53545;SDS011;39432;51.902;10.844;2023-02-24T08:23:18;8.25;;;1.48;;
53545;SDS011;39432;51.902;10.844;2023-02-24T08:25:49;7.65;;;1.10;;
53545;SDS011;39432;51.902;10.844;2023-02-24T08:28:21;17.73;;;2.47;;
53545;SDS011;39432;51.902;10.844;2023-02-24T08:30:52;7.15;;;1.95;;
53545;SDS011;39432;51.902;10.844;2023-02-24T08:33:22;11.77;;;1.85;;
53545;SDS011;39432;51.902;10.844;2023-02-24T08:35:55;7.38;;;1.20;;
53545;SDS011;39432;51.902;10.844;2023-02-24T08:38:28;6.28;;;1.33;;
53545;SDS011;39432;51.902;10.844;2023-02-24T08:41:05;5.25;;;1.30;;
53545;SDS011;39432;51.902;10.844;2023-02-24T08:43:46;11.77;;;1.77;;
53545;SDS011;39432;51.902;10.844;2023-02-24T08:46:17;4.65;;;1.52;;
53545;SDS011;39432;51.902;10.844;2023-02-24T08:48:52;7.20;;;1.10;;
53545;SDS011;39432;51.902;10.844;2023-02-24T08:51:26;10.18;;;1.65;;
53545;SDS011;39432;51.902;10.844;2023-02-24T08:54:01;5.93;;;1.03;;
53545;SDS011;39432;51.902;10.844;2023-02-24T08:56:37;4.45;;;1.23;;
53545;SDS011;39432;51.902;10.844;2023-02-24T08:59:12;4.72;;;1.40;;
53545;SDS011;39432;51.902;10.844;2023-02-24T09:01:58;4.50;;;1.23;;
53545;SDS011;39432;51.902;10.844;2023-02-24T09:04:43;6.13;;;1.20;;
53545;SDS011;39432;51.902;10.844;2023-02-24T09:07:15;5.10;;;1.20;;
53545;SDS011;39432;51.902;10.844;2023-02-24T09:09:46;5.65;;;1.13;;
53545;SDS011;39432;51.902;10.844;2023-02-24T09:12:16;6.32;;;1.20;;
53545;SDS011;39432;51.902;10.844;2023-02-24T09:14:53;9.25;;;1.63;;
53545;SDS011;39432;51.902;10.844;2023-02-24T09:17:27;7.70;;;1.25;;
53545;SDS011;39432;51.902;10.844;2023-02-24T09:20:16;6.18;;;1.67;;
53545;SDS011;39432;51.902;10.844;2023-02-24T09:23:15;5.65;;;1.20;;
53545;SDS011;39432;51.902;10.844;2023-02-24T09:25:55;11.77;;;2.30;;
53545;SDS011;39432;51.902;10.844;2023-02-24T09:28:36;13.10;;;3.17;;
53545;SDS011;39432;51.902;10.844;2023-02-24T09:31:17;10.57;;;2.67;;
53545;SDS011;39432;51.902;10.844;2023-02-24T09:33:49;9.05;;;1.70;;
53545;SDS011;39432;51.902;10.844;2023-02-24T09:36:20;4.15;;;1.10;;
53545;SDS011;39432;51.902;10.844;2023-02-24T09:38:54;4.55;;;0.98;;
53545;SDS011;39432;51.902;10.844;2023-02-24T09:41:41;5.72;;;1.10;;
53545;SDS011;39432;51.902;10.844;2023-02-24T09:44:27;5.57;;;1.10;;
53545;SDS011;39432;51.902;10.844;2023-02-24T09:47:08;7.07;;;1.08;;
53545;SDS011;39432;51.902;10.844;2023-02-24T09:49:48;7.90;;;1.50;;
53545;SDS011;39432;51.902;10.844;2023-02-24T09:52:23;7.40;;;1.30;;
53545;SDS011;39432;51.902;10.844;2023-02-24T09:55:08;8.90;;;1.20;;
53545;SDS011;39432;51.902;10.844;2023-02-24T09:57:51;6.00;;;1.33;;
53545;SDS011;39432;51.902;10.844;2023-02-24T10:00:40;8.07;;;1.30;;
53545;SDS011;39432;51.902;10.844;2023-02-24T10:03:22;5.25;;;1.17;;
53545;SDS011;39432;51.902;10.844;2023-02-24T10:06:12;10.52;;;1.10;;
53545;SDS011;39432;51.902;10.844;2023-02-24T10:08:51;5.60;;;1.00;;
53545;SDS011;39432;51.902;10.844;2023-02-24T10:11:37;10.38;;;1.58;;
53545;SDS011;39432;51.902;10.844;2023-02-24T10:14:19;16.42;;;1.70;;
53545;SDS011;39432;51.902;10.844;2023-02-24T10:17:09;9.02;;;1.92;;
53545;SDS011;39432;51.902;10.844;2023-02-24T10:19:59;9.57;;;1.20;;
53545;SDS011;39432;51.902;10.844;2023-02-24T10:22:57;6.30;;;0.80;;
53545;SDS011;39432;51.902;10.844;2023-02-24T10:25:38;4.57;;;1.52;;
53545;SDS011;39432;51.902;10.844;2023-02-24T10:28:22;5.78;;;1.10;;
53545;SDS011;39432;51.902;10.844;2023-02-24T10:31:03;4.07;;;1.10;;
53545;SDS011;39432;51.902;10.844;2023-02-24T10:33:52;7.50;;;1.10;;
53545;SDS011;39432;51.902;10.844;2023-02-24T10:36:28;7.00;;;1.05;;
53545;SDS011;39432;51.902;10.844;2023-02-24T10:41:41;7.57;;;1.30;;
53545;SDS011;39432;51.902;10.844;2023-02-24T10:44:18;3.92;;;0.90;;
53545;SDS011;39432;51.902;10.844;2023-02-24T10:46:59;24.67;;;2.08;;
53545;SDS011;39432;51.902;10.844;2023-02-24T10:49:40;8.55;;;1.27;;
53545;SDS011;39432;51.902;10.844;2023-02-24T10:52:28;3.78;;;0.80;;
53545;SDS011;39432;51.902;10.844;2023-02-24T10:55:37;7.43;;;0.85;;
53545;SDS011;39432;51.902;10.844;2023-02-24T10:58:40;4.97;;;0.98;;
53545;SDS011;39432;51.902;10.844;2023-02-24T11:01:24;4.57;;;1.30;;
53545;SDS011;39432;51.902;10.844;2023-02-24T11:04:09;5.70;;;1.15;;
53545;SDS011;39432;51.902;10.844;2023-02-24T11:06:48;4.40;;;0.90;;
53545;SDS011;39432;51.902;10.844;2023-02-24T11:09:26;4.07;;;0.90;;
53545;SDS011;39432;51.902;10.844;2023-02-24T11:12:13;7.80;;;1.10;;
53545;SDS011;39432;51.902;10.844;2023-02-24T11:14:57;6.00;;;1.13;;
53545;SDS011;39432;51.902;10.844;2023-02-24T11:17:52;2.00;;;0.70;;
53545;SDS011;39432;51.902;10.844;2023-02-24T11:20:26;2.60;;;0.80;;
53545;SDS011;39432;51.902;10.844;2023-02-24T11:23:15;6.55;;;0.98;;
53545;SDS011;39432;51.902;10.844;2023-02-24T11:25:50;3.70;;;0.90;;
53545;SDS011;39432;51.902;10.844;2023-02-24T11:28:38;2.00;;;1.00;;
53545;SDS011;39432;51.902;10.844;2023-02-24T11:31:19;8.73;;;1.20;;
53545;SDS011;39432;51.902;10.844;2023-02-24T11:34:03;5.90;;;1.00;;
53545;SDS011;39432;51.902;10.844;2023-02-24T11:36:38;5.15;;;0.95;;
53545;SDS011;39432;51.902;10.844;2023-02-24T11:39:19;5.55;;;1.27;;
53545;SDS011;39432;51.902;10.844;2023-02-24T11:42:10;2.85;;;0.82;;
53545;SDS011;39432;51.902;10.844;2023-02-24T11:44:44;2.80;;;0.70;;
53545;SDS011;39432;51.902;10.844;2023-02-24T11:47:21;2.35;;;0.82;;
53545;SDS011;39432;51.902;10.844;2023-02-24T11:50:01;6.82;;;1.00;;
53545;SDS011;39432;51.902;10.844;2023-02-24T11:52:39;2.97;;;0.80;;
53545;SDS011;39432;51.902;10.844;2023-02-24T11:55:13;4.53;;;1.00;;
53545;SDS011;39432;51.902;10.844;2023-02-24T11:57:56;3.17;;;0.80;;
53545;SDS011;39432;51.902;10.844;2023-02-24T12:00:27;2.95;;;0.90;;
53545;SDS011;39432;51.902;10.844;2023-02-24T12:03:03;1.45;;;0.60;;
53545;SDS011;39432;51.902;10.844;2023-02-24T12:05:40;2.92;;;1.02;;
53545;SDS011;39432;51.902;10.844;2023-02-24T12:08:17;4.47;;;1.10;;
53545;SDS011;39432;51.902;10.844;2023-02-24T12:10:55;1.83;;;0.50;;
53545;SDS011;39432;51.902;10.844;2023-02-24T12:13:35;2.20;;;0.80;;
53545;SDS011;39432;51.902;10.844;2023-02-24T12:16:09;1.30;;;0.60;;
53545;SDS011;39432;51.902;10.844;2023-02-24T12:18:43;3.03;;;0.80;;
53545;SDS011;39432;51.902;10.844;2023-02-24T12:21:17;0.98;;;0.70;;
53545;SDS011;39432;51.902;10.844;2023-02-24T12:26:22;0.68;;;0.50;;
53545;SDS011;39432;51.902;10.844;2023-02-24T12:29:01;1.40;;;0.47;;
53545;SDS011;39432;51.902;10.844;2023-02-24T12:31:43;1.05;;;0.60;;
53545;SDS011;39432;51.902;10.844;2023-02-24T12:34:25;0.95;;;0.40;;
53545;SDS011;39432;51.902;10.844;2023-02-24T12:37:20;2.15;;;0.50;;
53545;SDS011;39432;51.902;10.844;2023-02-24T12:40:08;2.08;;;0.70;;
53545;SDS011;39432;51.902;10.844;2023-02-24T12:42:50;1.98;;;0.75;;
53545;SDS011;39432;51.902;10.844;2023-02-24T12:45:33;1.70;;;0.60;;
53545;SDS011;39432;51.902;10.844;2023-02-24T12:48:20;1.30;;;0.45;;
53545;SDS011;39432;51.902;10.844;2023-02-24T12:51:01;0.93;;;0.50;;
53545;SDS011;39432;51.902;10.844;2023-02-24T12:53:36;0.80;;;0.50;;
53545;SDS011;39432;51.902;10.844;2023-02-24T12:56:14;0.50;;;0.40;;
53545;SDS011;39432;51.902;10.844;2023-02-24T12:58:50;0.65;;;0.30;;
53545;SDS011;39432;51.902;10.844;2023-02-24T13:01:27;1.00;;;0.40;;
53545;SDS011;39432;51.902;10.844;2023-02-24T13:04:11;0.57;;;0.40;;
53545;SDS011;39432;51.902;10.844;2023-02-24T13:06:55;0.50;;;0.30;;
53545;SDS011;39432;51.902;10.844;2023-02-24T13:09:34;1.38;;;0.40;;
53545;SDS011;39432;51.902;10.844;2023-02-24T13:12:11;0.47;;;0.30;;
53545;SDS011;39432;51.902;10.844;2023-02-24T13:14:46;0.50;;;0.30;;
53545;SDS011;39432;51.902;10.844;2023-02-24T13:17:21;0.65;;;0.30;;
53545;SDS011;39432;51.902;10.844;2023-02-24T13:19:53;0.40;;;0.30;;
53545;SDS011;39432;51.902;10.844;2023-02-24T13:22:26;0.52;;;0.32;;
53545;SDS011;39432;51.902;10.844;2023-02-24T13:24:59;0.80;;;0.40;;
53545;SDS011;39432;51.902;10.844;2023-02-24T13:27:40;0.30;;;0.30;;
53545;SDS011;39432;51.902;10.844;2023-02-24T13:30:23;1.05;;;0.30;;
53545;SDS011;39432;51.902;10.844;2023-02-24T13:33:02;0.50;;;0.40;;
53545;SDS011;39432;51.902;10.844;2023-02-24T13:35:35;0.30;;;0.22;;
53545;SDS011;39432;51.902;10.844;2023-02-24T13:38:09;0.50;;;0.40;;
53545;SDS011;39432;51.902;10.844;2023-02-24T13:40:52;0.70;;;0.50;;
53545;SDS011;39432;51.902;10.844;2023-02-24T13:43:24;0.95;;;0.50;;
53545;SDS011;39432;51.902;10.844;2023-02-24T13:45:58;0.52;;;0.35;;
53545;SDS011;39432;51.902;10.844;2023-02-24T13:48:41;0.52;;;0.35;;
53545;SDS011;39432;51.902;10.844;2023-02-24T13:51:27;1.77;;;0.30;;
53545;SDS011;39432;51.902;10.844;2023-02-24T13:54:19;1.45;;;0.70;;
53545;SDS011;39432;51.902;10.844;2023-02-24T13:57:00;0.75;;;0.40;;
53545;SDS011;39432;51.902;10.844;2023-02-24T13:59:41;0.52;;;0.40;;
53545;SDS011;39432;51.902;10.844;2023-02-24T14:02:24;2.53;;;1.00;;
53545;SDS011;39432;51.902;10.844;2023-02-24T14:04:59;4.55;;;2.10;;
53545;SDS011;39432;51.902;10.844;2023-02-24T14:07:38;0.82;;;0.50;;
53545;SDS011;39432;51.902;10.844;2023-02-24T14:10:13;0.52;;;0.38;;
53545;SDS011;39432;51.902;10.844;2023-02-24T14:12:45;1.10;;;0.75;;
53545;SDS011;39432;51.902;10.844;2023-02-24T14:15:17;2.95;;;1.30;;
53545;SDS011;39432;51.902;10.844;2023-02-24T14:17:53;0.68;;;0.40;;
53545;SDS011;39432;51.902;10.844;2023-02-24T14:20:29;1.13;;;0.60;;
53545;SDS011;39432;51.902;10.844;2023-02-24T14:23:00;1.00;;;0.57;;
53545;SDS011;39432;51.902;10.844;2023-02-24T14:25:33;0.57;;;0.40;;
53545;SDS011;39432;51.902;10.844;2023-02-24T14:28:12;2.65;;;0.47;;
53545;SDS011;39432;51.902;10.844;2023-02-24T14:30:52;0.40;;;0.40;;
53545;SDS011;39432;51.902;10.844;2023-02-24T14:33:28;1.88;;;0.68;;
53545;SDS011;39432;51.902;10.844;2023-02-24T14:36:02;0.90;;;0.60;;
53545;SDS011;39432;51.902;10.844;2023-02-24T14:38:34;2.33;;;0.47;;
53545;SDS011;39432;51.902;10.844;2023-02-24T14:41:14;0.63;;;0.40;;
53545;SDS011;39432;51.902;10.844;2023-02-24T14:43:47;0.30;;;0.30;;
53545;SDS011;39432;51.902;10.844;2023-02-24T14:46:17;0.47;;;0.28;;
53545;SDS011;39432;51.902;10.844;2023-02-24T14:48:51;0.85;;;0.40;;
53545;SDS011;39432;51.902;10.844;2023-02-24T14:51:25;0.50;;;0.30;;
53545;SDS011;39432;51.902;10.844;2023-02-24T14:54:02;0.50;;;0.40;;
53545;SDS011;39432;51.902;10.844;2023-02-24T14:56:35;0.57;;;0.45;;
53545;SDS011;39432;51.902;10.844;2023-02-24T14:59:07;1.08;;;0.60;;
53545;SDS011;39432;51.902;10.844;2023-02-24T15:01:44;4.80;;;0.50;;
53545;SDS011;39432;51.902;10.844;2023-02-24T15:04:19;0.57;;;0.40;;
53545;SDS011;39432;51.902;10.844;2023-02-24T15:07:02;3.42;;;1.98;;
53545;SDS011;39432;51.902;10.844;2023-02-24T15:09:35;1.77;;;0.98;;
53545;SDS011;39432;51.902;10.844;2023-02-24T15:12:10;0.93;;;0.50;;
53545;SDS011;39432;51.902;10.844;2023-02-24T15:14:47;0.73;;;0.40;;
53545;SDS011;39432;51.902;10.844;2023-02-24T15:17:20;1.10;;;0.75;;
53545;SDS011;39432;51.902;10.844;2023-02-24T15:19:50;1.30;;;0.70;;
53545;SDS011;39432;51.902;10.844;2023-02-24T15:22:26;0.82;;;0.60;;
53545;SDS011;39432;51.902;10.844;2023-02-24T15:25:08;1.80;;;0.52;;
53545;SDS011;39432;51.902;10.844;2023-02-24T15:27:48;2.78;;;1.30;;
53545;SDS011;39432;51.902;10.844;2023-02-24T15:30:26;3.25;;;1.70;;
53545;SDS011;39432;51.902;10.844;2023-02-24T15:32:58;2.78;;;1.00;;
53545;SDS011;39432;51.902;10.844;2023-02-24T15:35:30;2.25;;;0.95;;
53545;SDS011;39432;51.902;10.844;2023-02-24T15:38:05;2.50;;;1.17;;
53545;SDS011;39432;51.902;10.844;2023-02-24T15:40:37;1.70;;;0.90;;
53545;SDS011;39432;51.902;10.844;2023-02-24T15:43:08;1.30;;;0.73;;
53545;SDS011;39432;51.902;10.844;2023-02-24T15:45:39;3.33;;;0.98;;